sensor_id;sensor_type;location;lat;lon;timestamp;P1;durP1;ratioP1;P2;durP2;ratioP2
52858;SDS011;38721;53.098;6.596;2022-10-16T00:01:22;10.55;;;2.33;;
52858;SDS011;38721;53.098;6.596;2022-10-16T00:03:49;8.68;;;2.70;;
52858;SDS011;38721;53.098;6.596;2022-10-16T00:06:16;10.68;;;3.05;;
52858;SDS011;38721;53.098;6.596;2022-10-16T00:08:43;8.20;;;2.60;;
52858;SDS011;38721;53.098;6.596;2022-10-16T00:11:14;7.90;;;2.65;;
52858;SDS011;38721;53.098;6.596;2022-10-16T00:13:43;6.97;;;2.45;;
52858;SDS011;38721;53.098;6.596;2022-10-16T00:16:10;9.75;;;2.55;;
52858;SDS011;38721;53.098;6.596;2022-10-16T00:18:37;9.45;;;2.65;;
52858;SDS011;38721;53.098;6.596;2022-10-16T00:21:04;6.70;;;2.70;;
52858;SDS011;38721;53.098;6.596;2022-10-16T00:23:32;10.82;;;3.05;;
52858;SDS011;38721;53.098;6.596;2022-10-16T00:25:59;6.43;;;2.35;;
52858;SDS011;38721;53.098;6.596;2022-10-16T00:28:27;7.68;;;2.30;;
52858;SDS011;38721;53.098;6.596;2022-10-16T00:30:53;5.88;;;2.38;;
52858;SDS011;38721;53.098;6.596;2022-10-16T00:33:19;4.60;;;2.33;;
52858;SDS011;38721;53.098;6.596;2022-10-16T00:35:45;5.78;;;2.45;;
52858;SDS011;38721;53.098;6.596;2022-10-16T00:38:11;9.32;;;2.47;;
52858;SDS011;38721;53.098;6.596;2022-10-16T00:40:37;7.82;;;2.67;;
52858;SDS011;38721;53.098;6.596;2022-10-16T00:43:08;9.98;;;2.50;;
52858;SDS011;38721;53.098;6.596;2022-10-16T00:45:58;6.80;;;2.33;;
52858;SDS011;38721;53.098;6.596;2022-10-16T00:48:24;6.43;;;2.83;;
52858;SDS011;38721;53.098;6.596;2022-10-16T00:50:50;9.50;;;2.38;;
52858;SDS011;38721;53.098;6.596;2022-10-16T00:53:17;9.63;;;2.30;;
52858;SDS011;38721;53.098;6.596;2022-10-16T00:55:42;7.13;;;2.58;;
52858;SDS011;38721;53.098;6.596;2022-10-16T00:58:08;6.18;;;2.33;;
52858;SDS011;38721;53.098;6.596;2022-10-16T01:00:35;4.13;;;2.22;;
52858;SDS011;38721;53.098;6.596;2022-10-16T01:03:02;6.28;;;2.40;;
52858;SDS011;38721;53.098;6.596;2022-10-16T01:05:37;9.35;;;2.00;;
52858;SDS011;38721;53.098;6.596;2022-10-16T01:08:10;8.07;;;2.10;;
52858;SDS011;38721;53.098;6.596;2022-10-16T01:10:45;8.15;;;2.25;;
52858;SDS011;38721;53.098;6.596;2022-10-16T01:19:10;9.98;;;2.25;;
52858;SDS011;38721;53.098;6.596;2022-10-16T01:21:42;7.03;;;1.80;;
52858;SDS011;38721;53.098;6.596;2022-10-16T01:24:30;8.20;;;1.90;;
52858;SDS011;38721;53.098;6.596;2022-10-16T01:27:07;8.07;;;2.58;;
52858;SDS011;38721;53.098;6.596;2022-10-16T01:29:58;7.35;;;2.17;;
52858;SDS011;38721;53.098;6.596;2022-10-16T01:35:18;5.35;;;2.13;;
52858;SDS011;38721;53.098;6.596;2022-10-16T01:40:27;5.35;;;2.05;;
52858;SDS011;38721;53.098;6.596;2022-10-16T01:42:59;6.63;;;2.20;;
52858;SDS011;38721;53.098;6.596;2022-10-16T01:45:29;6.80;;;1.83;;
52858;SDS011;38721;53.098;6.596;2022-10-16T01:47:57;4.53;;;1.98;;
52858;SDS011;38721;53.098;6.596;2022-10-16T01:50:25;10.13;;;2.65;;
52858;SDS011;38721;53.098;6.596;2022-10-16T01:52:52;7.28;;;2.17;;
52858;SDS011;38721;53.098;6.596;2022-10-16T01:55:22;4.50;;;2.20;;
52858;SDS011;38721;53.098;6.596;2022-10-16T01:57:54;6.25;;;1.95;;
52858;SDS011;38721;53.098;6.596;2022-10-16T02:00:24;5.25;;;2.10;;
52858;SDS011;38721;53.098;6.596;2022-10-16T02:02:52;6.82;;;2.08;;
52858;SDS011;38721;53.098;6.596;2022-10-16T02:08:04;8.80;;;2.15;;
52858;SDS011;38721;53.098;6.596;2022-10-16T02:10:30;3.58;;;1.88;;
52858;SDS011;38721;53.098;6.596;2022-10-16T02:12:57;4.03;;;1.70;;
52858;SDS011;38721;53.098;6.596;2022-10-16T02:15:26;5.95;;;2.28;;
52858;SDS011;38721;53.098;6.596;2022-10-16T02:17:52;6.28;;;2.33;;
52858;SDS011;38721;53.098;6.596;2022-10-16T02:20:19;5.75;;;1.95;;
52858;SDS011;38721;53.098;6.596;2022-10-16T02:22:50;4.75;;;2.13;;
52858;SDS011;38721;53.098;6.596;2022-10-16T02:25:17;6.25;;;2.25;;
52858;SDS011;38721;53.098;6.596;2022-10-16T02:27:57;7.53;;;2.40;;
52858;SDS011;38721;53.098;6.596;2022-10-16T02:30:51;4.47;;;2.08;;
52858;SDS011;38721;53.098;6.596;2022-10-16T02:33:23;3.78;;;1.90;;
52858;SDS011;38721;53.098;6.596;2022-10-16T02:35:50;7.20;;;2.15;;
52858;SDS011;38721;53.098;6.596;2022-10-16T02:38:20;6.63;;;2.00;;
52858;SDS011;38721;53.098;6.596;2022-10-16T02:40:47;3.90;;;1.90;;
52858;SDS011;38721;53.098;6.596;2022-10-16T02:43:13;5.35;;;1.95;;
52858;SDS011;38721;53.098;6.596;2022-10-16T02:45:39;7.40;;;2.10;;
52858;SDS011;38721;53.098;6.596;2022-10-16T02:48:08;5.57;;;2.08;;
52858;SDS011;38721;53.098;6.596;2022-10-16T02:50:34;3.95;;;1.75;;
52858;SDS011;38721;53.098;6.596;2022-10-16T02:53:00;3.92;;;1.95;;
52858;SDS011;38721;53.098;6.596;2022-10-16T02:55:26;4.07;;;2.00;;
52858;SDS011;38721;53.098;6.596;2022-10-16T02:57:53;4.20;;;2.13;;
52858;SDS011;38721;53.098;6.596;2022-10-16T03:00:19;7.90;;;2.05;;
52858;SDS011;38721;53.098;6.596;2022-10-16T03:02:45;3.75;;;1.90;;
52858;SDS011;38721;53.098;6.596;2022-10-16T03:05:12;4.90;;;2.10;;
52858;SDS011;38721;53.098;6.596;2022-10-16T03:07:39;5.63;;;1.90;;
52858;SDS011;38721;53.098;6.596;2022-10-16T03:10:07;5.72;;;2.00;;
52858;SDS011;38721;53.098;6.596;2022-10-16T03:12:33;5.53;;;2.08;;
52858;SDS011;38721;53.098;6.596;2022-10-16T03:14:59;3.90;;;2.05;;
52858;SDS011;38721;53.098;6.596;2022-10-16T03:17:25;3.15;;;1.90;;
52858;SDS011;38721;53.098;6.596;2022-10-16T03:19:50;4.68;;;1.90;;
52858;SDS011;38721;53.098;6.596;2022-10-16T03:22:16;5.82;;;1.95;;
52858;SDS011;38721;53.098;6.596;2022-10-16T03:24:42;5.70;;;2.33;;
52858;SDS011;38721;53.098;6.596;2022-10-16T03:27:08;4.07;;;2.17;;
52858;SDS011;38721;53.098;6.596;2022-10-16T03:29:34;3.65;;;2.05;;
52858;SDS011;38721;53.098;6.596;2022-10-16T03:31:59;3.03;;;2.03;;
52858;SDS011;38721;53.098;6.596;2022-10-16T03:34:25;4.82;;;2.10;;
52858;SDS011;38721;53.098;6.596;2022-10-16T03:36:51;1.98;;;1.75;;
52858;SDS011;38721;53.098;6.596;2022-10-16T03:39:19;4.40;;;2.13;;
52858;SDS011;38721;53.098;6.596;2022-10-16T03:41:44;4.93;;;2.17;;
52858;SDS011;38721;53.098;6.596;2022-10-16T03:44:11;9.73;;;2.38;;
52858;SDS011;38721;53.098;6.596;2022-10-16T03:46:37;4.35;;;2.50;;
52858;SDS011;38721;53.098;6.596;2022-10-16T03:49:03;6.25;;;2.35;;
52858;SDS011;38721;53.098;6.596;2022-10-16T03:51:28;6.05;;;2.20;;
52858;SDS011;38721;53.098;6.596;2022-10-16T03:53:54;5.38;;;2.10;;
52858;SDS011;38721;53.098;6.596;2022-10-16T03:56:20;6.38;;;2.40;;
52858;SDS011;38721;53.098;6.596;2022-10-16T03:58:48;4.82;;;2.30;;
52858;SDS011;38721;53.098;6.596;2022-10-16T04:01:14;7.30;;;2.17;;
52858;SDS011;38721;53.098;6.596;2022-10-16T04:03:40;7.72;;;2.22;;
52858;SDS011;38721;53.098;6.596;2022-10-16T04:06:05;4.93;;;2.55;;
52858;SDS011;38721;53.098;6.596;2022-10-16T04:08:31;4.55;;;2.80;;
52858;SDS011;38721;53.098;6.596;2022-10-16T04:10:59;2.75;;;2.10;;
52858;SDS011;38721;53.098;6.596;2022-10-16T04:13:28;4.68;;;2.05;;
52858;SDS011;38721;53.098;6.596;2022-10-16T04:15:54;4.50;;;2.10;;
52858;SDS011;38721;53.098;6.596;2022-10-16T04:18:20;5.45;;;2.28;;
52858;SDS011;38721;53.098;6.596;2022-10-16T04:20:45;4.57;;;2.30;;
52858;SDS011;38721;53.098;6.596;2022-10-16T04:23:11;5.05;;;2.10;;
52858;SDS011;38721;53.098;6.596;2022-10-16T04:25:37;3.63;;;2.22;;
52858;SDS011;38721;53.098;6.596;2022-10-16T04:28:02;5.18;;;2.10;;
52858;SDS011;38721;53.098;6.596;2022-10-16T04:30:31;5.35;;;2.40;;
52858;SDS011;38721;53.098;6.596;2022-10-16T04:32:58;3.83;;;2.20;;
52858;SDS011;38721;53.098;6.596;2022-10-16T04:35:24;4.93;;;2.50;;
52858;SDS011;38721;53.098;6.596;2022-10-16T04:37:49;7.13;;;2.30;;
52858;SDS011;38721;53.098;6.596;2022-10-16T04:40:15;4.38;;;2.58;;
52858;SDS011;38721;53.098;6.596;2022-10-16T04:42:41;4.65;;;2.50;;
52858;SDS011;38721;53.098;6.596;2022-10-16T04:45:07;8.70;;;3.00;;
52858;SDS011;38721;53.098;6.596;2022-10-16T04:47:33;3.83;;;2.22;;
52858;SDS011;38721;53.098;6.596;2022-10-16T04:49:59;5.80;;;2.78;;
52858;SDS011;38721;53.098;6.596;2022-10-16T04:52:26;5.82;;;2.70;;
52858;SDS011;38721;53.098;6.596;2022-10-16T04:54:52;5.10;;;2.60;;
52858;SDS011;38721;53.098;6.596;2022-10-16T04:57:18;5.22;;;2.63;;
52858;SDS011;38721;53.098;6.596;2022-10-16T04:59:44;6.97;;;2.70;;
52858;SDS011;38721;53.098;6.596;2022-10-16T05:02:10;4.65;;;2.60;;
52858;SDS011;38721;53.098;6.596;2022-10-16T05:04:35;4.05;;;2.58;;
52858;SDS011;38721;53.098;6.596;2022-10-16T05:07:01;4.05;;;2.47;;
52858;SDS011;38721;53.098;6.596;2022-10-16T05:09:27;3.47;;;2.50;;
52858;SDS011;38721;53.098;6.596;2022-10-16T05:11:52;4.22;;;2.60;;
52858;SDS011;38721;53.098;6.596;2022-10-16T05:14:18;5.10;;;2.70;;
52858;SDS011;38721;53.098;6.596;2022-10-16T05:16:44;3.75;;;2.75;;
52858;SDS011;38721;53.098;6.596;2022-10-16T05:19:09;5.82;;;2.50;;
52858;SDS011;38721;53.098;6.596;2022-10-16T05:21:35;6.47;;;2.42;;
52858;SDS011;38721;53.098;6.596;2022-10-16T05:24:01;3.42;;;2.40;;
52858;SDS011;38721;53.098;6.596;2022-10-16T05:26:26;4.10;;;2.80;;
52858;SDS011;38721;53.098;6.596;2022-10-16T05:28:54;6.78;;;2.80;;
52858;SDS011;38721;53.098;6.596;2022-10-16T05:31:20;4.18;;;2.47;;
52858;SDS011;38721;53.098;6.596;2022-10-16T05:33:48;4.85;;;2.60;;
52858;SDS011;38721;53.098;6.596;2022-10-16T05:36:14;4.97;;;2.40;;
52858;SDS011;38721;53.098;6.596;2022-10-16T05:38:40;4.35;;;2.50;;
52858;SDS011;38721;53.098;6.596;2022-10-16T05:41:05;7.07;;;2.72;;
52858;SDS011;38721;53.098;6.596;2022-10-16T05:43:31;5.13;;;2.50;;
52858;SDS011;38721;53.098;6.596;2022-10-16T05:46:02;3.88;;;2.40;;
52858;SDS011;38721;53.098;6.596;2022-10-16T05:48:29;5.15;;;2.70;;
52858;SDS011;38721;53.098;6.596;2022-10-16T05:50:57;5.97;;;2.42;;
52858;SDS011;38721;53.098;6.596;2022-10-16T05:53:23;8.23;;;2.80;;
52858;SDS011;38721;53.098;6.596;2022-10-16T05:55:56;6.97;;;2.85;;
52858;SDS011;38721;53.098;6.596;2022-10-16T05:58:23;4.93;;;2.40;;
52858;SDS011;38721;53.098;6.596;2022-10-16T06:00:56;5.70;;;3.00;;
52858;SDS011;38721;53.098;6.596;2022-10-16T06:03:26;5.93;;;2.67;;
52858;SDS011;38721;53.098;6.596;2022-10-16T06:05:52;5.82;;;2.92;;
52858;SDS011;38721;53.098;6.596;2022-10-16T06:08:18;4.10;;;2.40;;
52858;SDS011;38721;53.098;6.596;2022-10-16T06:10:45;8.60;;;2.80;;
52858;SDS011;38721;53.098;6.596;2022-10-16T06:13:12;6.80;;;2.90;;
52858;SDS011;38721;53.098;6.596;2022-10-16T06:15:41;4.85;;;2.60;;
52858;SDS011;38721;53.098;6.596;2022-10-16T06:18:08;6.68;;;2.70;;
52858;SDS011;38721;53.098;6.596;2022-10-16T06:20:35;5.45;;;2.60;;
52858;SDS011;38721;53.098;6.596;2022-10-16T06:23:01;7.53;;;2.42;;
52858;SDS011;38721;53.098;6.596;2022-10-16T06:25:26;4.22;;;2.45;;
52858;SDS011;38721;53.098;6.596;2022-10-16T06:27:52;8.70;;;2.78;;
52858;SDS011;38721;53.098;6.596;2022-10-16T06:30:18;6.18;;;2.80;;
52858;SDS011;38721;53.098;6.596;2022-10-16T06:32:43;7.68;;;3.30;;
52858;SDS011;38721;53.098;6.596;2022-10-16T06:35:09;4.63;;;2.90;;
52858;SDS011;38721;53.098;6.596;2022-10-16T06:37:37;3.97;;;2.30;;
52858;SDS011;38721;53.098;6.596;2022-10-16T06:40:03;8.00;;;2.67;;
52858;SDS011;38721;53.098;6.596;2022-10-16T06:42:32;5.68;;;2.75;;
52858;SDS011;38721;53.098;6.596;2022-10-16T06:44:58;5.30;;;2.45;;
52858;SDS011;38721;53.098;6.596;2022-10-16T06:47:23;9.15;;;2.20;;
52858;SDS011;38721;53.098;6.596;2022-10-16T06:49:49;6.10;;;2.58;;
52858;SDS011;38721;53.098;6.596;2022-10-16T06:52:14;6.78;;;2.67;;
52858;SDS011;38721;53.098;6.596;2022-10-16T06:54:40;5.82;;;2.60;;
52858;SDS011;38721;53.098;6.596;2022-10-16T06:57:06;8.32;;;3.03;;
52858;SDS011;38721;53.098;6.596;2022-10-16T06:59:31;7.18;;;2.72;;
52858;SDS011;38721;53.098;6.596;2022-10-16T07:01:57;7.85;;;2.50;;
52858;SDS011;38721;53.098;6.596;2022-10-16T07:04:23;5.22;;;2.47;;
52858;SDS011;38721;53.098;6.596;2022-10-16T07:06:48;3.10;;;2.33;;
52858;SDS011;38721;53.098;6.596;2022-10-16T07:09:14;7.85;;;2.55;;
52858;SDS011;38721;53.098;6.596;2022-10-16T07:11:40;13.10;;;2.50;;
52858;SDS011;38721;53.098;6.596;2022-10-16T07:14:12;7.00;;;2.33;;
52858;SDS011;38721;53.098;6.596;2022-10-16T07:16:41;7.40;;;2.70;;
52858;SDS011;38721;53.098;6.596;2022-10-16T07:19:07;4.43;;;2.60;;
52858;SDS011;38721;53.098;6.596;2022-10-16T07:21:34;3.53;;;2.47;;
52858;SDS011;38721;53.098;6.596;2022-10-16T07:24:04;5.93;;;2.45;;
52858;SDS011;38721;53.098;6.596;2022-10-16T07:26:32;6.05;;;2.50;;
52858;SDS011;38721;53.098;6.596;2022-10-16T07:28:59;4.68;;;2.50;;
52858;SDS011;38721;53.098;6.596;2022-10-16T07:31:25;10.05;;;2.45;;
52858;SDS011;38721;53.098;6.596;2022-10-16T07:33:52;5.30;;;2.38;;
52858;SDS011;38721;53.098;6.596;2022-10-16T07:36:19;7.53;;;2.40;;
52858;SDS011;38721;53.098;6.596;2022-10-16T07:38:48;6.47;;;3.53;;
52858;SDS011;38721;53.098;6.596;2022-10-16T07:41:32;5.55;;;2.80;;
52858;SDS011;38721;53.098;6.596;2022-10-16T07:44:01;13.93;;;2.90;;
52858;SDS011;38721;53.098;6.596;2022-10-16T07:46:28;3.75;;;2.72;;
52858;SDS011;38721;53.098;6.596;2022-10-16T07:48:55;6.25;;;2.35;;
52858;SDS011;38721;53.098;6.596;2022-10-16T07:51:22;3.17;;;2.17;;
52858;SDS011;38721;53.098;6.596;2022-10-16T07:53:48;4.32;;;2.38;;
52858;SDS011;38721;53.098;6.596;2022-10-16T07:56:15;3.78;;;2.10;;
52858;SDS011;38721;53.098;6.596;2022-10-16T07:58:41;6.75;;;2.40;;
52858;SDS011;38721;53.098;6.596;2022-10-16T08:01:08;3.80;;;2.20;;
52858;SDS011;38721;53.098;6.596;2022-10-16T08:03:35;4.25;;;2.03;;
52858;SDS011;38721;53.098;6.596;2022-10-16T08:06:02;6.75;;;2.50;;
52858;SDS011;38721;53.098;6.596;2022-10-16T08:08:29;5.57;;;2.20;;
52858;SDS011;38721;53.098;6.596;2022-10-16T08:10:55;4.68;;;2.00;;
52858;SDS011;38721;53.098;6.596;2022-10-16T08:13:21;3.83;;;2.00;;
52858;SDS011;38721;53.098;6.596;2022-10-16T08:15:46;3.63;;;1.98;;
52858;SDS011;38721;53.098;6.596;2022-10-16T08:18:15;4.55;;;1.88;;
52858;SDS011;38721;53.098;6.596;2022-10-16T08:20:42;7.90;;;2.13;;
52858;SDS011;38721;53.098;6.596;2022-10-16T08:23:09;2.90;;;1.70;;
52858;SDS011;38721;53.098;6.596;2022-10-16T08:25:37;5.65;;;2.00;;
52858;SDS011;38721;53.098;6.596;2022-10-16T08:28:06;4.78;;;1.67;;
52858;SDS011;38721;53.098;6.596;2022-10-16T08:30:34;3.85;;;1.60;;
52858;SDS011;38721;53.098;6.596;2022-10-16T08:33:00;3.58;;;1.38;;
52858;SDS011;38721;53.098;6.596;2022-10-16T08:35:26;7.15;;;1.45;;
52858;SDS011;38721;53.098;6.596;2022-10-16T08:37:52;5.97;;;1.27;;
52858;SDS011;38721;53.098;6.596;2022-10-16T08:48:43;4.15;;;1.30;;
52858;SDS011;38721;53.098;6.596;2022-10-16T08:51:11;5.05;;;1.60;;
52858;SDS011;38721;53.098;6.596;2022-10-16T08:53:43;4.63;;;1.45;;
52858;SDS011;38721;53.098;6.596;2022-10-16T08:56:13;2.03;;;1.38;;
52858;SDS011;38721;53.098;6.596;2022-10-16T08:58:39;2.35;;;1.63;;
52858;SDS011;38721;53.098;6.596;2022-10-16T09:01:10;3.22;;;1.90;;
52858;SDS011;38721;53.098;6.596;2022-10-16T09:03:54;1.45;;;1.35;;
52858;SDS011;38721;53.098;6.596;2022-10-16T09:07:01;6.57;;;1.40;;
52858;SDS011;38721;53.098;6.596;2022-10-16T09:09:51;4.93;;;1.80;;
52858;SDS011;38721;53.098;6.596;2022-10-16T09:12:40;7.72;;;1.70;;
52858;SDS011;38721;53.098;6.596;2022-10-16T09:18:30;3.28;;;1.58;;
52858;SDS011;38721;53.098;6.596;2022-10-16T09:23:38;4.57;;;1.67;;
52858;SDS011;38721;53.098;6.596;2022-10-16T09:26:04;3.50;;;1.60;;
52858;SDS011;38721;53.098;6.596;2022-10-16T09:28:34;5.47;;;1.80;;
52858;SDS011;38721;53.098;6.596;2022-10-16T09:31:00;5.88;;;1.67;;
52858;SDS011;38721;53.098;6.596;2022-10-16T09:33:29;7.63;;;1.80;;
52858;SDS011;38721;53.098;6.596;2022-10-16T09:36:00;7.18;;;1.50;;
52858;SDS011;38721;53.098;6.596;2022-10-16T09:38:31;5.82;;;1.50;;
52858;SDS011;38721;53.098;6.596;2022-10-16T09:40:59;3.90;;;1.40;;
52858;SDS011;38721;53.098;6.596;2022-10-16T09:48:59;4.55;;;1.48;;
52858;SDS011;38721;53.098;6.596;2022-10-16T09:51:31;5.20;;;1.75;;
52858;SDS011;38721;53.098;6.596;2022-10-16T09:56:33;7.70;;;1.80;;
52858;SDS011;38721;53.098;6.596;2022-10-16T10:01:39;12.57;;;2.00;;
52858;SDS011;38721;53.098;6.596;2022-10-16T10:04:11;11.65;;;2.08;;
52858;SDS011;38721;53.098;6.596;2022-10-16T10:06:40;10.18;;;2.13;;
52858;SDS011;38721;53.098;6.596;2022-10-16T10:11:52;6.30;;;1.45;;
52858;SDS011;38721;53.098;6.596;2022-10-16T10:19:30;6.13;;;1.63;;
52858;SDS011;38721;53.098;6.596;2022-10-16T10:22:11;11.32;;;1.65;;
52858;SDS011;38721;53.098;6.596;2022-10-16T10:35:51;7.67;;;1.70;;
52858;SDS011;38721;53.098;6.596;2022-10-16T10:38:45;14.00;;;2.15;;
52858;SDS011;38721;53.098;6.596;2022-10-16T10:44:26;8.73;;;1.77;;
52858;SDS011;38721;53.098;6.596;2022-10-16T10:50:07;9.55;;;2.00;;
52858;SDS011;38721;53.098;6.596;2022-10-16T11:06:49;4.47;;;1.50;;
52858;SDS011;38721;53.098;6.596;2022-10-16T11:12:05;10.20;;;1.88;;
52858;SDS011;38721;53.098;6.596;2022-10-16T11:14:48;6.63;;;2.00;;
52858;SDS011;38721;53.098;6.596;2022-10-16T11:17:35;10.15;;;2.00;;
52858;SDS011;38721;53.098;6.596;2022-10-16T11:25:50;8.82;;;1.65;;
52858;SDS011;38721;53.098;6.596;2022-10-16T11:28:31;9.32;;;2.17;;
52858;SDS011;38721;53.098;6.596;2022-10-16T11:31:05;7.38;;;1.58;;
52858;SDS011;38721;53.098;6.596;2022-10-16T11:33:46;7.22;;;1.92;;
52858;SDS011;38721;53.098;6.596;2022-10-16T11:36:17;9.93;;;2.15;;
52858;SDS011;38721;53.098;6.596;2022-10-16T11:38:52;7.13;;;1.65;;
52858;SDS011;38721;53.098;6.596;2022-10-16T11:46:59;8.77;;;2.05;;
52858;SDS011;38721;53.098;6.596;2022-10-16T11:49:45;4.03;;;1.58;;
52858;SDS011;38721;53.098;6.596;2022-10-16T12:03:48;6.80;;;1.52;;
52858;SDS011;38721;53.098;6.596;2022-10-16T12:06:42;6.47;;;1.60;;
52858;SDS011;38721;53.098;6.596;2022-10-16T12:09:31;10.18;;;2.20;;
52858;SDS011;38721;53.098;6.596;2022-10-16T12:12:03;5.28;;;1.17;;
52858;SDS011;38721;53.098;6.596;2022-10-16T12:19:21;11.77;;;2.38;;
52858;SDS011;38721;53.098;6.596;2022-10-16T12:21:48;9.45;;;1.75;;
52858;SDS011;38721;53.098;6.596;2022-10-16T12:24:29;9.50;;;1.70;;
52858;SDS011;38721;53.098;6.596;2022-10-16T12:27:01;7.78;;;1.85;;
52858;SDS011;38721;53.098;6.596;2022-10-16T12:29:34;9.52;;;1.90;;
52858;SDS011;38721;53.098;6.596;2022-10-16T12:32:20;9.15;;;1.58;;
52858;SDS011;38721;53.098;6.596;2022-10-16T12:34:58;11.57;;;2.10;;
52858;SDS011;38721;53.098;6.596;2022-10-16T12:37:35;11.43;;;2.60;;
52858;SDS011;38721;53.098;6.596;2022-10-16T12:40:12;5.47;;;1.50;;
52858;SDS011;38721;53.098;6.596;2022-10-16T12:42:41;9.00;;;1.67;;
52858;SDS011;38721;53.098;6.596;2022-10-16T12:47:52;6.55;;;1.98;;
52858;SDS011;38721;53.098;6.596;2022-10-16T12:50:52;9.43;;;1.98;;
52858;SDS011;38721;53.098;6.596;2022-10-16T12:53:18;9.68;;;1.75;;
52858;SDS011;38721;53.098;6.596;2022-10-16T12:58:31;12.13;;;2.30;;
52858;SDS011;38721;53.098;6.596;2022-10-16T13:01:17;10.07;;;1.95;;
52858;SDS011;38721;53.098;6.596;2022-10-16T13:04:19;12.55;;;2.28;;
52858;SDS011;38721;53.098;6.596;2022-10-16T13:10:24;11.25;;;2.30;;
52858;SDS011;38721;53.098;6.596;2022-10-16T13:12:56;8.55;;;2.03;;
52858;SDS011;38721;53.098;6.596;2022-10-16T13:15:30;6.72;;;1.70;;
52858;SDS011;38721;53.098;6.596;2022-10-16T13:18:12;12.43;;;2.47;;
52858;SDS011;38721;53.098;6.596;2022-10-16T13:28:58;11.32;;;2.00;;
52858;SDS011;38721;53.098;6.596;2022-10-16T13:31:26;7.60;;;1.60;;
52858;SDS011;38721;53.098;6.596;2022-10-16T13:33:53;7.90;;;1.80;;
52858;SDS011;38721;53.098;6.596;2022-10-16T13:36:26;15.00;;;1.98;;
52858;SDS011;38721;53.098;6.596;2022-10-16T13:41:39;16.63;;;2.70;;
52858;SDS011;38721;53.098;6.596;2022-10-16T13:44:08;9.43;;;1.65;;
52858;SDS011;38721;53.098;6.596;2022-10-16T13:49:14;13.30;;;2.00;;
52858;SDS011;38721;53.098;6.596;2022-10-16T13:51:41;5.68;;;1.70;;
52858;SDS011;38721;53.098;6.596;2022-10-16T13:54:18;13.68;;;2.00;;
52858;SDS011;38721;53.098;6.596;2022-10-16T13:56:44;8.77;;;1.73;;
52858;SDS011;38721;53.098;6.596;2022-10-16T13:59:26;11.90;;;1.92;;
52858;SDS011;38721;53.098;6.596;2022-10-16T14:02:05;9.00;;;1.45;;
52858;SDS011;38721;53.098;6.596;2022-10-16T14:04:48;10.13;;;1.80;;
52858;SDS011;38721;53.098;6.596;2022-10-16T14:07:14;4.18;;;1.45;;
52858;SDS011;38721;53.098;6.596;2022-10-16T14:09:50;8.02;;;1.70;;
52858;SDS011;38721;53.098;6.596;2022-10-16T14:12:16;9.60;;;2.28;;
52858;SDS011;38721;53.098;6.596;2022-10-16T14:14:42;7.28;;;1.60;;
52858;SDS011;38721;53.098;6.596;2022-10-16T14:17:29;8.70;;;1.65;;
52858;SDS011;38721;53.098;6.596;2022-10-16T14:19:58;9.15;;;1.75;;
52858;SDS011;38721;53.098;6.596;2022-10-16T14:22:35;7.70;;;2.28;;
52858;SDS011;38721;53.098;6.596;2022-10-16T14:28:02;8.70;;;2.03;;
52858;SDS011;38721;53.098;6.596;2022-10-16T14:30:48;7.05;;;1.83;;
52858;SDS011;38721;53.098;6.596;2022-10-16T14:38:30;11.57;;;1.83;;
52858;SDS011;38721;53.098;6.596;2022-10-16T14:40:58;13.93;;;2.17;;
52858;SDS011;38721;53.098;6.596;2022-10-16T14:43:49;8.13;;;1.88;;
52858;SDS011;38721;53.098;6.596;2022-10-16T14:46:16;11.43;;;1.70;;
52858;SDS011;38721;53.098;6.596;2022-10-16T14:48:51;12.25;;;2.22;;
52858;SDS011;38721;53.098;6.596;2022-10-16T14:51:40;8.50;;;2.10;;
52858;SDS011;38721;53.098;6.596;2022-10-16T14:54:08;6.35;;;1.70;;
52858;SDS011;38721;53.098;6.596;2022-10-16T14:59:39;9.23;;;2.20;;
52858;SDS011;38721;53.098;6.596;2022-10-16T15:02:17;10.75;;;2.10;;
52858;SDS011;38721;53.098;6.596;2022-10-16T15:04:54;11.05;;;2.20;;
52858;SDS011;38721;53.098;6.596;2022-10-16T15:07:20;13.05;;;2.20;;
52858;SDS011;38721;53.098;6.596;2022-10-16T15:09:47;10.90;;;2.10;;
52858;SDS011;38721;53.098;6.596;2022-10-16T15:12:12;10.25;;;2.17;;
52858;SDS011;38721;53.098;6.596;2022-10-16T15:14:38;11.05;;;2.55;;
52858;SDS011;38721;53.098;6.596;2022-10-16T15:17:04;9.75;;;2.25;;
52858;SDS011;38721;53.098;6.596;2022-10-16T15:19:29;11.13;;;2.17;;
52858;SDS011;38721;53.098;6.596;2022-10-16T15:21:55;11.32;;;2.38;;
52858;SDS011;38721;53.098;6.596;2022-10-16T15:24:21;11.75;;;2.20;;
52858;SDS011;38721;53.098;6.596;2022-10-16T15:26:47;9.50;;;2.50;;
52858;SDS011;38721;53.098;6.596;2022-10-16T15:29:13;10.75;;;2.33;;
52858;SDS011;38721;53.098;6.596;2022-10-16T15:31:39;12.85;;;2.13;;
52858;SDS011;38721;53.098;6.596;2022-10-16T15:34:08;8.90;;;1.90;;
52858;SDS011;38721;53.098;6.596;2022-10-16T15:36:35;21.27;;;5.57;;
52858;SDS011;38721;53.098;6.596;2022-10-16T15:39:08;50.20;;;7.75;;
52858;SDS011;38721;53.098;6.596;2022-10-16T15:41:44;23.83;;;3.80;;
52858;SDS011;38721;53.098;6.596;2022-10-16T15:44:12;13.13;;;3.15;;
52858;SDS011;38721;53.098;6.596;2022-10-16T15:46:38;10.00;;;2.88;;
52858;SDS011;38721;53.098;6.596;2022-10-16T15:49:04;12.75;;;2.30;;
52858;SDS011;38721;53.098;6.596;2022-10-16T15:51:30;9.55;;;2.60;;
52858;SDS011;38721;53.098;6.596;2022-10-16T15:53:58;10.15;;;2.33;;
52858;SDS011;38721;53.098;6.596;2022-10-16T15:56:26;10.02;;;2.22;;
52858;SDS011;38721;53.098;6.596;2022-10-16T15:58:53;9.95;;;2.30;;
52858;SDS011;38721;53.098;6.596;2022-10-16T16:01:20;11.23;;;2.72;;
52858;SDS011;38721;53.098;6.596;2022-10-16T16:03:46;8.93;;;2.30;;
52858;SDS011;38721;53.098;6.596;2022-10-16T16:06:12;12.07;;;2.53;;
52858;SDS011;38721;53.098;6.596;2022-10-16T16:08:41;8.07;;;1.80;;
52858;SDS011;38721;53.098;6.596;2022-10-16T16:11:08;10.27;;;1.80;;
52858;SDS011;38721;53.098;6.596;2022-10-16T16:13:36;9.73;;;2.33;;
52858;SDS011;38721;53.098;6.596;2022-10-16T16:16:12;9.93;;;2.47;;
52858;SDS011;38721;53.098;6.596;2022-10-16T16:18:40;17.27;;;3.97;;
52858;SDS011;38721;53.098;6.596;2022-10-16T16:21:06;10.60;;;3.08;;
52858;SDS011;38721;53.098;6.596;2022-10-16T16:23:32;18.00;;;3.03;;
52858;SDS011;38721;53.098;6.596;2022-10-16T16:26:05;16.00;;;3.70;;
52858;SDS011;38721;53.098;6.596;2022-10-16T16:28:34;11.60;;;3.03;;
52858;SDS011;38721;53.098;6.596;2022-10-16T16:31:03;13.63;;;2.78;;
52858;SDS011;38721;53.098;6.596;2022-10-16T16:33:29;14.43;;;2.70;;
52858;SDS011;38721;53.098;6.596;2022-10-16T16:35:57;13.48;;;2.60;;
52858;SDS011;38721;53.098;6.596;2022-10-16T16:38:27;11.32;;;2.70;;
52858;SDS011;38721;53.098;6.596;2022-10-16T16:40:53;9.30;;;2.40;;
52858;SDS011;38721;53.098;6.596;2022-10-16T16:43:22;7.75;;;1.92;;
52858;SDS011;38721;53.098;6.596;2022-10-16T16:45:48;9.40;;;2.08;;
52858;SDS011;38721;53.098;6.596;2022-10-16T16:48:14;7.70;;;2.50;;
52858;SDS011;38721;53.098;6.596;2022-10-16T16:50:39;9.43;;;2.33;;
52858;SDS011;38721;53.098;6.596;2022-10-16T16:53:05;10.25;;;2.70;;
52858;SDS011;38721;53.098;6.596;2022-10-16T16:55:32;11.80;;;2.67;;
52858;SDS011;38721;53.098;6.596;2022-10-16T16:57:58;15.00;;;2.65;;
52858;SDS011;38721;53.098;6.596;2022-10-16T17:00:24;12.30;;;2.80;;
52858;SDS011;38721;53.098;6.596;2022-10-16T17:02:50;13.18;;;2.58;;
52858;SDS011;38721;53.098;6.596;2022-10-16T17:05:16;9.55;;;3.33;;
52858;SDS011;38721;53.098;6.596;2022-10-16T17:07:43;11.18;;;2.33;;
52858;SDS011;38721;53.098;6.596;2022-10-16T17:10:08;11.90;;;2.50;;
52858;SDS011;38721;53.098;6.596;2022-10-16T17:12:35;9.15;;;2.55;;
52858;SDS011;38721;53.098;6.596;2022-10-16T17:15:01;11.68;;;2.50;;
52858;SDS011;38721;53.098;6.596;2022-10-16T17:17:32;10.27;;;2.33;;
52858;SDS011;38721;53.098;6.596;2022-10-16T17:19:58;16.05;;;4.57;;
52858;SDS011;38721;53.098;6.596;2022-10-16T17:22:24;14.32;;;5.55;;